Ana Sayfa
METAR-TAF:

METAR-TAF

Havaalanları :

Schenectady County Airport

Schenectady, New York, Amerika Birleşik Devletleri

Enlem: 42-51N, Boylam: 073-56W, yükseklik: 115 m

Güncel hava durumu gözlemi

Rapor saat 01:50 UTC de 2 saat ve 38 dakika önce yapıldı.
Rüzgar batı/kuzeybatıdan 6 kt
Sıcaklık 13°C
Nem 38%
Basınç 1007 hPa
Görüş mesafesi: 24.1 km
6500 ft yükseklikte parçalı bulutlu
7500 ft yükseklikte parçalı çok bulutlu
11000 ft yükseklikte çok bulutlu

METAR: KSCH 080150Z COR 29006KT 15SM SCT065 BKN075 OVC110 13/M01 A2973 RMK LAST

Saat: 00:28 (04:28 UTC)


TAF: eksik

4.000'den fazla havaalanı için hava durumu gözlemleri ve tahminleri (METAR ve TAF raporları).

Kullanılabilir istasyonlar harita üzerinde sarı ve kırmızı noktalarla gösterilir.

İstasyonun adını görmek için fareyi noktanın üzerinde gezdirin.

Sonrasında hava gözlem ve tahminlerini görmek için tıklayın.

Haritayı değiştirmek için: yaklaştırmak için siyah artı işaretli yeşil düğmeye ve uzaklaştırmak için de eksi işaretli düğmeye hızla tıklayın; bitişik haritalar için yeşil okları kullanın.


METAR-TAF: